sensor_id;sensor_type;location;lat;lon;timestamp;P1;durP1;ratioP1;P2;durP2;ratioP2
67548;SDS011;54382;53.524;49.326;2022-07-06T00:00:01;27.95;;;6.80;;
67548;SDS011;54382;53.524;49.326;2022-07-06T00:02:31;14.70;;;6.03;;
67548;SDS011;54382;53.524;49.326;2022-07-06T00:04:58;13.82;;;6.10;;
67548;SDS011;54382;53.524;49.326;2022-07-06T00:07:24;11.20;;;5.22;;
67548;SDS011;54382;53.524;49.326;2022-07-06T00:09:51;10.50;;;5.90;;
67548;SDS011;54382;53.524;49.326;2022-07-06T00:12:18;13.62;;;5.72;;
67548;SDS011;54382;53.524;49.326;2022-07-06T00:14:44;15.95;;;6.00;;
67548;SDS011;54382;53.524;49.326;2022-07-06T00:17:11;15.63;;;5.80;;
67548;SDS011;54382;53.524;49.326;2022-07-06T00:19:38;11.93;;;5.35;;
67548;SDS011;54382;53.524;49.326;2022-07-06T00:22:04;10.02;;;5.53;;
67548;SDS011;54382;53.524;49.326;2022-07-06T00:24:31;14.10;;;5.97;;
67548;SDS011;54382;53.524;49.326;2022-07-06T00:26:57;17.98;;;5.55;;
67548;SDS011;54382;53.524;49.326;2022-07-06T00:29:24;11.68;;;5.05;;
67548;SDS011;54382;53.524;49.326;2022-07-06T00:31:51;17.10;;;5.37;;
67548;SDS011;54382;53.524;49.326;2022-07-06T00:34:17;16.35;;;5.50;;
67548;SDS011;54382;53.524;49.326;2022-07-06T00:36:44;14.52;;;4.85;;
67548;SDS011;54382;53.524;49.326;2022-07-06T00:39:10;11.45;;;5.10;;
67548;SDS011;54382;53.524;49.326;2022-07-06T00:41:37;13.90;;;4.70;;
67548;SDS011;54382;53.524;49.326;2022-07-06T00:44:06;13.23;;;5.12;;
67548;SDS011;54382;53.524;49.326;2022-07-06T00:46:35;10.77;;;4.80;;
67548;SDS011;54382;53.524;49.326;2022-07-06T00:49:02;9.82;;;4.35;;
67548;SDS011;54382;53.524;49.326;2022-07-06T00:51:29;13.05;;;4.62;;
67548;SDS011;54382;53.524;49.326;2022-07-06T00:54:02;14.75;;;4.62;;
67548;SDS011;54382;53.524;49.326;2022-07-06T00:56:30;9.07;;;4.50;;
67548;SDS011;54382;53.524;49.326;2022-07-06T00:59:01;10.30;;;4.22;;
67548;SDS011;54382;53.524;49.326;2022-07-06T01:01:28;16.30;;;4.22;;
67548;SDS011;54382;53.524;49.326;2022-07-06T01:03:55;18.62;;;4.03;;
67548;SDS011;54382;53.524;49.326;2022-07-06T01:06:22;9.93;;;4.30;;
67548;SDS011;54382;53.524;49.326;2022-07-06T01:08:49;13.18;;;4.60;;
67548;SDS011;54382;53.524;49.326;2022-07-06T01:11:16;13.88;;;4.40;;
67548;SDS011;54382;53.524;49.326;2022-07-06T01:13:44;12.60;;;4.20;;
67548;SDS011;54382;53.524;49.326;2022-07-06T01:16:13;12.02;;;4.28;;
67548;SDS011;54382;53.524;49.326;2022-07-06T01:18:40;10.60;;;4.57;;
67548;SDS011;54382;53.524;49.326;2022-07-06T01:21:11;15.07;;;4.43;;
67548;SDS011;54382;53.524;49.326;2022-07-06T01:23:40;14.70;;;4.18;;
67548;SDS011;54382;53.524;49.326;2022-07-06T01:26:15;17.87;;;4.78;;
67548;SDS011;54382;53.524;49.326;2022-07-06T01:28:45;12.77;;;4.10;;
67548;SDS011;54382;53.524;49.326;2022-07-06T01:31:15;20.50;;;5.25;;
67548;SDS011;54382;53.524;49.326;2022-07-06T01:33:50;16.85;;;4.10;;
67548;SDS011;54382;53.524;49.326;2022-07-06T01:38:47;9.82;;;4.10;;
67548;SDS011;54382;53.524;49.326;2022-07-06T01:41:18;9.60;;;4.10;;
67548;SDS011;54382;53.524;49.326;2022-07-06T01:43:46;11.75;;;3.47;;
67548;SDS011;54382;53.524;49.326;2022-07-06T01:46:13;8.20;;;3.40;;
67548;SDS011;54382;53.524;49.326;2022-07-06T01:48:40;8.38;;;3.47;;
67548;SDS011;54382;53.524;49.326;2022-07-06T01:51:07;6.45;;;2.80;;
67548;SDS011;54382;53.524;49.326;2022-07-06T01:53:34;9.75;;;3.22;;
67548;SDS011;54382;53.524;49.326;2022-07-06T01:56:01;13.07;;;3.40;;
67548;SDS011;54382;53.524;49.326;2022-07-06T01:58:27;10.95;;;3.17;;
67548;SDS011;54382;53.524;49.326;2022-07-06T02:00:54;10.80;;;3.85;;
67548;SDS011;54382;53.524;49.326;2022-07-06T02:03:21;9.93;;;3.40;;
67548;SDS011;54382;53.524;49.326;2022-07-06T02:05:48;12.55;;;3.55;;
67548;SDS011;54382;53.524;49.326;2022-07-06T02:08:14;12.73;;;3.40;;
67548;SDS011;54382;53.524;49.326;2022-07-06T02:10:41;14.45;;;4.12;;
67548;SDS011;54382;53.524;49.326;2022-07-06T02:13:08;28.30;;;4.55;;
67548;SDS011;54382;53.524;49.326;2022-07-06T02:15:34;15.95;;;4.37;;
67548;SDS011;54382;53.524;49.326;2022-07-06T02:18:01;10.65;;;3.85;;
67548;SDS011;54382;53.524;49.326;2022-07-06T02:20:27;18.15;;;2.80;;
67548;SDS011;54382;53.524;49.326;2022-07-06T02:22:54;23.17;;;3.17;;
67548;SDS011;54382;53.524;49.326;2022-07-06T02:25:21;23.65;;;4.45;;
67548;SDS011;54382;53.524;49.326;2022-07-06T02:27:48;9.85;;;1.92;;
67548;SDS011;54382;53.524;49.326;2022-07-06T02:30:15;12.13;;;2.00;;
67548;SDS011;54382;53.524;49.326;2022-07-06T02:32:42;12.65;;;2.60;;
67548;SDS011;54382;53.524;49.326;2022-07-06T02:35:08;6.10;;;1.30;;
67548;SDS011;54382;53.524;49.326;2022-07-06T02:37:35;7.75;;;1.42;;
67548;SDS011;54382;53.524;49.326;2022-07-06T02:40:02;7.60;;;1.12;;
67548;SDS011;54382;53.524;49.326;2022-07-06T02:42:29;14.77;;;1.98;;
67548;SDS011;54382;53.524;49.326;2022-07-06T02:44:56;8.18;;;1.40;;
67548;SDS011;54382;53.524;49.326;2022-07-06T02:47:22;13.35;;;1.12;;
67548;SDS011;54382;53.524;49.326;2022-07-06T02:49:49;5.87;;;1.33;;
67548;SDS011;54382;53.524;49.326;2022-07-06T02:52:16;10.35;;;1.08;;
67548;SDS011;54382;53.524;49.326;2022-07-06T02:54:42;7.20;;;1.87;;
67548;SDS011;54382;53.524;49.326;2022-07-06T02:57:09;13.18;;;1.50;;
67548;SDS011;54382;53.524;49.326;2022-07-06T02:59:35;13.10;;;1.48;;
67548;SDS011;54382;53.524;49.326;2022-07-06T03:02:03;14.18;;;1.83;;
67548;SDS011;54382;53.524;49.326;2022-07-06T03:04:30;9.50;;;1.40;;
67548;SDS011;54382;53.524;49.326;2022-07-06T03:06:57;6.87;;;1.20;;
67548;SDS011;54382;53.524;49.326;2022-07-06T03:09:24;11.48;;;1.30;;
67548;SDS011;54382;53.524;49.326;2022-07-06T03:11:51;12.70;;;1.27;;
67548;SDS011;54382;53.524;49.326;2022-07-06T03:14:18;7.85;;;1.00;;
67548;SDS011;54382;53.524;49.326;2022-07-06T03:16:45;12.10;;;1.30;;
67548;SDS011;54382;53.524;49.326;2022-07-06T03:19:12;7.85;;;1.15;;
67548;SDS011;54382;53.524;49.326;2022-07-06T03:21:38;6.03;;;0.95;;
67548;SDS011;54382;53.524;49.326;2022-07-06T03:24:05;9.90;;;1.30;;
67548;SDS011;54382;53.524;49.326;2022-07-06T03:26:32;7.87;;;0.77;;
67548;SDS011;54382;53.524;49.326;2022-07-06T03:28:59;12.80;;;1.62;;
67548;SDS011;54382;53.524;49.326;2022-07-06T03:31:25;6.82;;;0.68;;
67548;SDS011;54382;53.524;49.326;2022-07-06T03:33:52;9.63;;;1.10;;
67548;SDS011;54382;53.524;49.326;2022-07-06T03:36:19;12.60;;;1.20;;
67548;SDS011;54382;53.524;49.326;2022-07-06T03:38:45;11.73;;;0.95;;
67548;SDS011;54382;53.524;49.326;2022-07-06T03:41:12;10.52;;;1.00;;
67548;SDS011;54382;53.524;49.326;2022-07-06T03:43:39;8.20;;;0.80;;
67548;SDS011;54382;53.524;49.326;2022-07-06T03:46:06;17.00;;;1.30;;
67548;SDS011;54382;53.524;49.326;2022-07-06T03:48:32;10.90;;;0.98;;
67548;SDS011;54382;53.524;49.326;2022-07-06T03:50:59;5.03;;;0.70;;
67548;SDS011;54382;53.524;49.326;2022-07-06T03:53:25;8.60;;;1.05;;
67548;SDS011;54382;53.524;49.326;2022-07-06T03:55:52;25.58;;;1.48;;
67548;SDS011;54382;53.524;49.326;2022-07-06T03:58:37;14.55;;;1.20;;
67548;SDS011;54382;53.524;49.326;2022-07-06T04:01:04;7.43;;;1.00;;
67548;SDS011;54382;53.524;49.326;2022-07-06T04:03:31;5.40;;;0.80;;
67548;SDS011;54382;53.524;49.326;2022-07-06T04:05:57;10.07;;;1.08;;
67548;SDS011;54382;53.524;49.326;2022-07-06T04:08:26;10.32;;;0.90;;
67548;SDS011;54382;53.524;49.326;2022-07-06T04:10:53;12.98;;;1.10;;
67548;SDS011;54382;53.524;49.326;2022-07-06T04:13:20;12.63;;;1.10;;
67548;SDS011;54382;53.524;49.326;2022-07-06T04:15:46;3.35;;;0.80;;
67548;SDS011;54382;53.524;49.326;2022-07-06T04:18:13;9.77;;;0.70;;
67548;SDS011;54382;53.524;49.326;2022-07-06T04:20:40;10.82;;;1.10;;
67548;SDS011;54382;53.524;49.326;2022-07-06T04:23:06;11.75;;;0.80;;
67548;SDS011;54382;53.524;49.326;2022-07-06T04:25:33;5.15;;;0.85;;
67548;SDS011;54382;53.524;49.326;2022-07-06T04:28:00;8.30;;;1.10;;
67548;SDS011;54382;53.524;49.326;2022-07-06T04:30:27;10.80;;;1.00;;
67548;SDS011;54382;53.524;49.326;2022-07-06T04:32:53;10.15;;;1.37;;
67548;SDS011;54382;53.524;49.326;2022-07-06T04:35:20;11.12;;;0.98;;
67548;SDS011;54382;53.524;49.326;2022-07-06T04:37:47;7.10;;;1.10;;
67548;SDS011;54382;53.524;49.326;2022-07-06T04:40:14;8.57;;;1.05;;
67548;SDS011;54382;53.524;49.326;2022-07-06T04:42:41;11.68;;;1.33;;
67548;SDS011;54382;53.524;49.326;2022-07-06T04:45:07;8.77;;;1.45;;
67548;SDS011;54382;53.524;49.326;2022-07-06T04:47:35;5.12;;;0.77;;
67548;SDS011;54382;53.524;49.326;2022-07-06T04:50:02;3.28;;;0.88;;
67548;SDS011;54382;53.524;49.326;2022-07-06T04:52:30;4.53;;;1.02;;
67548;SDS011;54382;53.524;49.326;2022-07-06T04:54:57;12.93;;;0.70;;
67548;SDS011;54382;53.524;49.326;2022-07-06T04:57:24;9.38;;;1.00;;
67548;SDS011;54382;53.524;49.326;2022-07-06T04:59:51;9.63;;;0.90;;
67548;SDS011;54382;53.524;49.326;2022-07-06T05:02:18;13.88;;;0.70;;
67548;SDS011;54382;53.524;49.326;2022-07-06T05:04:45;11.85;;;0.80;;
67548;SDS011;54382;53.524;49.326;2022-07-06T05:07:11;7.25;;;0.90;;
67548;SDS011;54382;53.524;49.326;2022-07-06T05:09:38;11.45;;;1.00;;
67548;SDS011;54382;53.524;49.326;2022-07-06T05:12:05;4.87;;;0.65;;
67548;SDS011;54382;53.524;49.326;2022-07-06T05:14:33;3.37;;;0.70;;
67548;SDS011;54382;53.524;49.326;2022-07-06T05:17:01;5.32;;;0.60;;
67548;SDS011;54382;53.524;49.326;2022-07-06T05:19:28;3.87;;;0.50;;
67548;SDS011;54382;53.524;49.326;2022-07-06T05:21:55;7.43;;;0.62;;
67548;SDS011;54382;53.524;49.326;2022-07-06T05:24:22;20.10;;;0.85;;
67548;SDS011;54382;53.524;49.326;2022-07-06T05:26:48;6.30;;;0.60;;
67548;SDS011;54382;53.524;49.326;2022-07-06T05:29:15;5.57;;;0.68;;
67548;SDS011;54382;53.524;49.326;2022-07-06T05:31:42;5.90;;;0.60;;
67548;SDS011;54382;53.524;49.326;2022-07-06T05:34:08;6.72;;;0.65;;
67548;SDS011;54382;53.524;49.326;2022-07-06T05:36:35;11.80;;;0.90;;
67548;SDS011;54382;53.524;49.326;2022-07-06T05:39:02;13.85;;;1.20;;
67548;SDS011;54382;53.524;49.326;2022-07-06T05:41:28;6.32;;;0.45;;
67548;SDS011;54382;53.524;49.326;2022-07-06T05:43:55;5.32;;;0.50;;
67548;SDS011;54382;53.524;49.326;2022-07-06T05:46:22;7.25;;;1.02;;
67548;SDS011;54382;53.524;49.326;2022-07-06T05:48:49;2.92;;;0.73;;
67548;SDS011;54382;53.524;49.326;2022-07-06T05:51:34;10.10;;;1.15;;
67548;SDS011;54382;53.524;49.326;2022-07-06T05:54:00;7.70;;;0.88;;
67548;SDS011;54382;53.524;49.326;2022-07-06T05:56:27;5.32;;;0.82;;
67548;SDS011;54382;53.524;49.326;2022-07-06T05:58:55;11.93;;;0.60;;
67548;SDS011;54382;53.524;49.326;2022-07-06T06:01:21;2.90;;;0.70;;
67548;SDS011;54382;53.524;49.326;2022-07-06T06:03:48;5.47;;;0.85;;
67548;SDS011;54382;53.524;49.326;2022-07-06T06:06:14;8.43;;;1.00;;
67548;SDS011;54382;53.524;49.326;2022-07-06T06:08:41;9.93;;;1.37;;
67548;SDS011;54382;53.524;49.326;2022-07-06T06:11:08;6.22;;;1.10;;
67548;SDS011;54382;53.524;49.326;2022-07-06T06:13:35;9.07;;;1.40;;
67548;SDS011;54382;53.524;49.326;2022-07-06T06:16:01;11.20;;;0.90;;
67548;SDS011;54382;53.524;49.326;2022-07-06T06:18:28;3.35;;;0.75;;
67548;SDS011;54382;53.524;49.326;2022-07-06T06:20:55;9.75;;;1.25;;
67548;SDS011;54382;53.524;49.326;2022-07-06T06:23:22;10.30;;;1.67;;
67548;SDS011;54382;53.524;49.326;2022-07-06T06:25:48;4.57;;;0.80;;
67548;SDS011;54382;53.524;49.326;2022-07-06T06:28:15;2.95;;;0.70;;
67548;SDS011;54382;53.524;49.326;2022-07-06T06:30:41;7.57;;;0.93;;
67548;SDS011;54382;53.524;49.326;2022-07-06T06:33:15;7.45;;;0.70;;
67548;SDS011;54382;53.524;49.326;2022-07-06T06:35:45;9.35;;;0.85;;
67548;SDS011;54382;53.524;49.326;2022-07-06T06:38:22;8.93;;;0.60;;
67548;SDS011;54382;53.524;49.326;2022-07-06T06:40:53;8.23;;;0.73;;
67548;SDS011;54382;53.524;49.326;2022-07-06T06:43:19;3.90;;;0.60;;
67548;SDS011;54382;53.524;49.326;2022-07-06T06:45:46;10.70;;;0.62;;
67548;SDS011;54382;53.524;49.326;2022-07-06T06:48:12;9.07;;;0.82;;
67548;SDS011;54382;53.524;49.326;2022-07-06T06:50:39;2.42;;;0.50;;
67548;SDS011;54382;53.524;49.326;2022-07-06T06:53:06;12.93;;;0.75;;
67548;SDS011;54382;53.524;49.326;2022-07-06T06:55:33;3.05;;;0.45;;
67548;SDS011;54382;53.524;49.326;2022-07-06T06:57:59;8.93;;;0.50;;
67548;SDS011;54382;53.524;49.326;2022-07-06T07:00:26;2.97;;;0.50;;
67548;SDS011;54382;53.524;49.326;2022-07-06T07:02:53;1.40;;;0.30;;
67548;SDS011;54382;53.524;49.326;2022-07-06T07:05:19;5.20;;;0.40;;
67548;SDS011;54382;53.524;49.326;2022-07-06T07:07:46;2.90;;;0.35;;
67548;SDS011;54382;53.524;49.326;2022-07-06T07:10:13;5.22;;;0.43;;
67548;SDS011;54382;53.524;49.326;2022-07-06T07:12:44;3.42;;;0.40;;
67548;SDS011;54382;53.524;49.326;2022-07-06T07:17:39;4.78;;;0.60;;
67548;SDS011;54382;53.524;49.326;2022-07-06T07:20:06;7.60;;;0.60;;
67548;SDS011;54382;53.524;49.326;2022-07-06T07:22:34;4.32;;;0.60;;
67548;SDS011;54382;53.524;49.326;2022-07-06T07:25:01;5.85;;;0.90;;
67548;SDS011;54382;53.524;49.326;2022-07-06T07:27:28;5.22;;;0.70;;
67548;SDS011;54382;53.524;49.326;2022-07-06T07:29:55;5.05;;;0.35;;
67548;SDS011;54382;53.524;49.326;2022-07-06T07:32:22;9.15;;;0.55;;
67548;SDS011;54382;53.524;49.326;2022-07-06T07:34:48;5.15;;;0.43;;
67548;SDS011;54382;53.524;49.326;2022-07-06T07:37:15;2.25;;;0.50;;
67548;SDS011;54382;53.524;49.326;2022-07-06T07:39:42;4.78;;;0.47;;
67548;SDS011;54382;53.524;49.326;2022-07-06T07:42:09;5.60;;;0.50;;
67548;SDS011;54382;53.524;49.326;2022-07-06T07:44:35;7.72;;;0.93;;
67548;SDS011;54382;53.524;49.326;2022-07-06T07:47:04;8.15;;;0.40;;
67548;SDS011;54382;53.524;49.326;2022-07-06T07:49:31;3.22;;;0.60;;
67548;SDS011;54382;53.524;49.326;2022-07-06T07:51:58;5.60;;;0.62;;
67548;SDS011;54382;53.524;49.326;2022-07-06T07:54:24;1.40;;;0.20;;
67548;SDS011;54382;53.524;49.326;2022-07-06T07:56:51;8.00;;;0.43;;
67548;SDS011;54382;53.524;49.326;2022-07-06T07:59:17;3.65;;;0.52;;
67548;SDS011;54382;53.524;49.326;2022-07-06T08:01:44;3.37;;;0.40;;
67548;SDS011;54382;53.524;49.326;2022-07-06T08:04:11;11.25;;;0.50;;
67548;SDS011;54382;53.524;49.326;2022-07-06T08:06:37;6.72;;;0.50;;
67548;SDS011;54382;53.524;49.326;2022-07-06T08:09:04;9.85;;;0.50;;
67548;SDS011;54382;53.524;49.326;2022-07-06T08:11:35;4.47;;;0.60;;
67548;SDS011;54382;53.524;49.326;2022-07-06T08:14:03;2.22;;;0.47;;
67548;SDS011;54382;53.524;49.326;2022-07-06T08:16:32;3.97;;;0.50;;
67548;SDS011;54382;53.524;49.326;2022-07-06T08:18:58;6.62;;;0.50;;
67548;SDS011;54382;53.524;49.326;2022-07-06T08:21:25;4.57;;;0.70;;
67548;SDS011;54382;53.524;49.326;2022-07-06T08:23:53;4.75;;;0.50;;
67548;SDS011;54382;53.524;49.326;2022-07-06T08:26:21;0.93;;;0.47;;
67548;SDS011;54382;53.524;49.326;2022-07-06T08:28:48;9.73;;;1.67;;
67548;SDS011;54382;53.524;49.326;2022-07-06T08:31:15;10.75;;;0.60;;
67548;SDS011;54382;53.524;49.326;2022-07-06T08:33:42;5.20;;;0.60;;
67548;SDS011;54382;53.524;49.326;2022-07-06T08:36:09;2.37;;;0.30;;
67548;SDS011;54382;53.524;49.326;2022-07-06T08:38:36;9.32;;;0.73;;
67548;SDS011;54382;53.524;49.326;2022-07-06T08:41:02;3.67;;;0.40;;
67548;SDS011;54382;53.524;49.326;2022-07-06T08:43:32;14.73;;;0.60;;
67548;SDS011;54382;53.524;49.326;2022-07-06T08:46:01;10.77;;;0.73;;
67548;SDS011;54382;53.524;49.326;2022-07-06T08:48:30;4.55;;;0.80;;
67548;SDS011;54382;53.524;49.326;2022-07-06T08:51:06;5.45;;;0.60;;
67548;SDS011;54382;53.524;49.326;2022-07-06T08:53:33;14.45;;;1.33;;
67548;SDS011;54382;53.524;49.326;2022-07-06T08:56:03;5.45;;;0.93;;
67548;SDS011;54382;53.524;49.326;2022-07-06T08:58:30;3.87;;;0.60;;
67548;SDS011;54382;53.524;49.326;2022-07-06T09:00:58;4.37;;;0.60;;
67548;SDS011;54382;53.524;49.326;2022-07-06T09:03:26;2.33;;;0.50;;
67548;SDS011;54382;53.524;49.326;2022-07-06T09:05:56;7.53;;;1.30;;
67548;SDS011;54382;53.524;49.326;2022-07-06T09:08:27;1.50;;;0.30;;
67548;SDS011;54382;53.524;49.326;2022-07-06T09:10:56;0.90;;;0.30;;
67548;SDS011;54382;53.524;49.326;2022-07-06T09:13:23;5.28;;;0.70;;
67548;SDS011;54382;53.524;49.326;2022-07-06T09:15:50;7.05;;;0.50;;
67548;SDS011;54382;53.524;49.326;2022-07-06T09:18:17;2.30;;;0.40;;
67548;SDS011;54382;53.524;49.326;2022-07-06T09:20:47;8.27;;;0.57;;
67548;SDS011;54382;53.524;49.326;2022-07-06T09:23:15;8.05;;;0.70;;
67548;SDS011;54382;53.524;49.326;2022-07-06T09:25:42;1.83;;;0.43;;
67548;SDS011;54382;53.524;49.326;2022-07-06T09:28:15;3.08;;;0.57;;
67548;SDS011;54382;53.524;49.326;2022-07-06T09:30:41;1.70;;;0.50;;
67548;SDS011;54382;53.524;49.326;2022-07-06T09:33:09;18.00;;;0.90;;
67548;SDS011;54382;53.524;49.326;2022-07-06T09:35:38;2.92;;;0.40;;
67548;SDS011;54382;53.524;49.326;2022-07-06T09:38:11;7.65;;;0.68;;
67548;SDS011;54382;53.524;49.326;2022-07-06T09:40:43;12.65;;;0.68;;
67548;SDS011;54382;53.524;49.326;2022-07-06T09:45:51;7.35;;;0.57;;
67548;SDS011;54382;53.524;49.326;2022-07-06T09:48:22;2.17;;;0.30;;
67548;SDS011;54382;53.524;49.326;2022-07-06T09:50:54;12.07;;;0.77;;
67548;SDS011;54382;53.524;49.326;2022-07-06T09:53:28;15.00;;;1.20;;
67548;SDS011;54382;53.524;49.326;2022-07-06T09:55:55;1.85;;;0.50;;
67548;SDS011;54382;53.524;49.326;2022-07-06T09:58:27;2.22;;;0.40;;
67548;SDS011;54382;53.524;49.326;2022-07-06T10:00:54;7.50;;;0.60;;
67548;SDS011;54382;53.524;49.326;2022-07-06T10:03:21;7.05;;;0.65;;
67548;SDS011;54382;53.524;49.326;2022-07-06T10:05:48;6.07;;;0.80;;
67548;SDS011;54382;53.524;49.326;2022-07-06T10:08:16;3.53;;;0.45;;
67548;SDS011;54382;53.524;49.326;2022-07-06T10:10:43;9.80;;;0.85;;
67548;SDS011;54382;53.524;49.326;2022-07-06T10:13:10;3.22;;;0.50;;
67548;SDS011;54382;53.524;49.326;2022-07-06T10:15:39;2.72;;;0.40;;
67548;SDS011;54382;53.524;49.326;2022-07-06T10:18:07;1.70;;;0.28;;
67548;SDS011;54382;53.524;49.326;2022-07-06T10:20:36;4.87;;;0.50;;
67548;SDS011;54382;53.524;49.326;2022-07-06T10:23:05;1.80;;;0.30;;
67548;SDS011;54382;53.524;49.326;2022-07-06T10:25:34;6.55;;;0.50;;
67548;SDS011;54382;53.524;49.326;2022-07-06T10:28:01;7.37;;;0.68;;
67548;SDS011;54382;53.524;49.326;2022-07-06T10:30:28;9.75;;;0.60;;
67548;SDS011;54382;53.524;49.326;2022-07-06T10:32:57;5.62;;;0.55;;
67548;SDS011;54382;53.524;49.326;2022-07-06T10:35:26;13.30;;;1.23;;
67548;SDS011;54382;53.524;49.326;2022-07-06T10:38:03;4.12;;;0.40;;
67548;SDS011;54382;53.524;49.326;2022-07-06T10:40:39;2.90;;;0.55;;
67548;SDS011;54382;53.524;49.326;2022-07-06T10:46:22;2.55;;;0.40;;
67548;SDS011;54382;53.524;49.326;2022-07-06T10:48:50;6.47;;;0.45;;
67548;SDS011;54382;53.524;49.326;2022-07-06T10:54:15;11.90;;;1.00;;
67548;SDS011;54382;53.524;49.326;2022-07-06T10:56:43;6.25;;;0.70;;
67548;SDS011;54382;53.524;49.326;2022-07-06T10:59:23;5.57;;;0.50;;
67548;SDS011;54382;53.524;49.326;2022-07-06T11:02:11;9.95;;;0.70;;
67548;SDS011;54382;53.524;49.326;2022-07-06T11:04:43;6.53;;;0.85;;
67548;SDS011;54382;53.524;49.326;2022-07-06T11:07:13;2.37;;;0.57;;
67548;SDS011;54382;53.524;49.326;2022-07-06T11:09:41;6.12;;;0.20;;
67548;SDS011;54382;53.524;49.326;2022-07-06T11:12:22;3.97;;;0.50;;
67548;SDS011;54382;53.524;49.326;2022-07-06T11:14:50;7.07;;;0.40;;
67548;SDS011;54382;53.524;49.326;2022-07-06T11:17:18;3.37;;;0.50;;
67548;SDS011;54382;53.524;49.326;2022-07-06T11:20:18;3.58;;;0.55;;
67548;SDS011;54382;53.524;49.326;2022-07-06T11:22:38;3.17;;;0.30;;
67548;SDS011;54382;53.524;49.326;2022-07-06T11:25:05;3.58;;;0.68;;
67548;SDS011;54382;53.524;49.326;2022-07-06T11:27:34;1.55;;;0.30;;
67548;SDS011;54382;53.524;49.326;2022-07-06T11:30:00;2.97;;;0.35;;
67548;SDS011;54382;53.524;49.326;2022-07-06T11:32:27;1.45;;;0.50;;
67548;SDS011;54382;53.524;49.326;2022-07-06T11:34:54;6.18;;;0.55;;
67548;SDS011;54382;53.524;49.326;2022-07-06T11:37:21;3.08;;;0.50;;
67548;SDS011;54382;53.524;49.326;2022-07-06T11:39:48;3.50;;;0.50;;
67548;SDS011;54382;53.524;49.326;2022-07-06T11:42:16;3.95;;;0.50;;
67548;SDS011;54382;53.524;49.326;2022-07-06T11:44:44;3.45;;;0.47;;
67548;SDS011;54382;53.524;49.326;2022-07-06T11:47:11;10.93;;;0.65;;
67548;SDS011;54382;53.524;49.326;2022-07-06T11:49:42;3.97;;;0.68;;
67548;SDS011;54382;53.524;49.326;2022-07-06T11:52:12;6.03;;;0.88;;
67548;SDS011;54382;53.524;49.326;2022-07-06T11:54:40;7.78;;;0.40;;
67548;SDS011;54382;53.524;49.326;2022-07-06T11:57:09;4.70;;;0.70;;
67548;SDS011;54382;53.524;49.326;2022-07-06T11:59:38;5.95;;;0.60;;
67548;SDS011;54382;53.524;49.326;2022-07-06T12:02:07;3.45;;;0.65;;
67548;SDS011;54382;53.524;49.326;2022-07-06T12:04:38;1.17;;;0.40;;
67548;SDS011;54382;53.524;49.326;2022-07-06T12:07:13;4.90;;;0.60;;
67548;SDS011;54382;53.524;49.326;2022-07-06T12:09:43;3.47;;;0.62;;
67548;SDS011;54382;53.524;49.326;2022-07-06T12:12:12;3.70;;;0.73;;
67548;SDS011;54382;53.524;49.326;2022-07-06T12:14:41;3.20;;;0.50;;
67548;SDS011;54382;53.524;49.326;2022-07-06T12:17:14;4.87;;;0.60;;
67548;SDS011;54382;53.524;49.326;2022-07-06T12:19:42;4.75;;;0.50;;
67548;SDS011;54382;53.524;49.326;2022-07-06T12:22:09;6.87;;;0.60;;
67548;SDS011;54382;53.524;49.326;2022-07-06T12:24:36;12.65;;;0.75;;
67548;SDS011;54382;53.524;49.326;2022-07-06T12:27:14;3.95;;;0.50;;
67548;SDS011;54382;53.524;49.326;2022-07-06T12:29:46;9.05;;;0.90;;
67548;SDS011;54382;53.524;49.326;2022-07-06T12:32:14;4.10;;;0.40;;
67548;SDS011;54382;53.524;49.326;2022-07-06T12:34:47;3.97;;;0.45;;
67548;SDS011;54382;53.524;49.326;2022-07-06T12:37:29;14.70;;;0.65;;
67548;SDS011;54382;53.524;49.326;2022-07-06T12:39:56;2.87;;;0.50;;
67548;SDS011;54382;53.524;49.326;2022-07-06T12:42:23;5.15;;;0.40;;
67548;SDS011;54382;53.524;49.326;2022-07-06T12:44:50;6.87;;;0.62;;
67548;SDS011;54382;53.524;49.326;2022-07-06T12:47:19;6.12;;;1.17;;
67548;SDS011;54382;53.524;49.326;2022-07-06T12:49:51;5.55;;;0.52;;
67548;SDS011;54382;53.524;49.326;2022-07-06T12:52:32;7.20;;;0.55;;
67548;SDS011;54382;53.524;49.326;2022-07-06T12:55:00;4.78;;;0.70;;
67548;SDS011;54382;53.524;49.326;2022-07-06T12:57:27;4.12;;;0.57;;
67548;SDS011;54382;53.524;49.326;2022-07-06T13:00:13;2.37;;;0.30;;
67548;SDS011;54382;53.524;49.326;2022-07-06T13:02:43;14.02;;;0.77;;
67548;SDS011;54382;53.524;49.326;2022-07-06T13:05:12;2.15;;;0.50;;
67548;SDS011;54382;53.524;49.326;2022-07-06T13:07:45;4.20;;;0.60;;
67548;SDS011;54382;53.524;49.326;2022-07-06T13:10:14;3.55;;;0.50;;
67548;SDS011;54382;53.524;49.326;2022-07-06T13:12:42;0.98;;;0.30;;
67548;SDS011;54382;53.524;49.326;2022-07-06T13:15:09;2.85;;;0.55;;
67548;SDS011;54382;53.524;49.326;2022-07-06T13:17:36;4.40;;;0.55;;
67548;SDS011;54382;53.524;49.326;2022-07-06T13:20:04;4.30;;;0.70;;
67548;SDS011;54382;53.524;49.326;2022-07-06T13:22:36;6.22;;;1.10;;
67548;SDS011;54382;53.524;49.326;2022-07-06T13:25:03;6.70;;;0.52;;
67548;SDS011;54382;53.524;49.326;2022-07-06T13:27:31;9.55;;;0.85;;
67548;SDS011;54382;53.524;49.326;2022-07-06T13:29:58;14.77;;;0.70;;
67548;SDS011;54382;53.524;49.326;2022-07-06T13:32:25;2.85;;;0.60;;
67548;SDS011;54382;53.524;49.326;2022-07-06T13:34:51;1.70;;;0.40;;
67548;SDS011;54382;53.524;49.326;2022-07-06T13:37:19;2.08;;;0.32;;
67548;SDS011;54382;53.524;49.326;2022-07-06T13:39:46;11.05;;;0.90;;
67548;SDS011;54382;53.524;49.326;2022-07-06T13:42:13;7.07;;;0.50;;
67548;SDS011;54382;53.524;49.326;2022-07-06T13:44:39;1.80;;;0.32;;
67548;SDS011;54382;53.524;49.326;2022-07-06T13:47:06;3.30;;;0.62;;
67548;SDS011;54382;53.524;49.326;2022-07-06T13:49:33;8.02;;;0.85;;
67548;SDS011;54382;53.524;49.326;2022-07-06T13:52:00;3.72;;;0.55;;
67548;SDS011;54382;53.524;49.326;2022-07-06T13:54:30;7.40;;;1.05;;
67548;SDS011;54382;53.524;49.326;2022-07-06T13:56:57;3.78;;;0.75;;
67548;SDS011;54382;53.524;49.326;2022-07-06T13:59:24;10.75;;;0.65;;
67548;SDS011;54382;53.524;49.326;2022-07-06T14:01:50;3.45;;;0.68;;
67548;SDS011;54382;53.524;49.326;2022-07-06T14:04:17;2.85;;;0.43;;
67548;SDS011;54382;53.524;49.326;2022-07-06T14:06:44;6.45;;;0.65;;
67548;SDS011;54382;53.524;49.326;2022-07-06T14:09:10;4.40;;;0.60;;
67548;SDS011;54382;53.524;49.326;2022-07-06T14:11:37;6.72;;;0.70;;
67548;SDS011;54382;53.524;49.326;2022-07-06T14:14:04;2.45;;;0.60;;
67548;SDS011;54382;53.524;49.326;2022-07-06T14:16:35;3.90;;;0.65;;
67548;SDS011;54382;53.524;49.326;2022-07-06T14:19:02;6.12;;;0.55;;
67548;SDS011;54382;53.524;49.326;2022-07-06T14:21:29;16.25;;;1.17;;
67548;SDS011;54382;53.524;49.326;2022-07-06T14:23:56;2.78;;;0.90;;
67548;SDS011;54382;53.524;49.326;2022-07-06T14:26:22;12.77;;;0.40;;
67548;SDS011;54382;53.524;49.326;2022-07-06T14:28:49;4.93;;;0.75;;
67548;SDS011;54382;53.524;49.326;2022-07-06T14:31:16;4.20;;;0.60;;
67548;SDS011;54382;53.524;49.326;2022-07-06T14:33:43;3.28;;;0.90;;
67548;SDS011;54382;53.524;49.326;2022-07-06T14:36:10;4.70;;;0.80;;
67548;SDS011;54382;53.524;49.326;2022-07-06T14:38:37;3.65;;;0.90;;
67548;SDS011;54382;53.524;49.326;2022-07-06T14:41:03;4.60;;;0.62;;
67548;SDS011;54382;53.524;49.326;2022-07-06T14:43:30;9.30;;;0.80;;
67548;SDS011;54382;53.524;49.326;2022-07-06T14:45:56;6.62;;;0.60;;
67548;SDS011;54382;53.524;49.326;2022-07-06T14:48:23;4.68;;;1.05;;